createdAt,value
2018-03-23T10:06:07.492Z,21.00
2018-03-23T10:07:07.650Z,26.60
2018-03-23T10:08:07.850Z,27.60
2018-03-23T10:09:08.024Z,27.80
2018-03-23T10:10:08.209Z,29.10
2018-03-23T10:11:08.377Z,27.90
2018-03-23T10:12:08.560Z,29.40
2018-03-23T10:13:08.731Z,28.50
2018-03-23T10:14:08.910Z,28.80
2018-03-23T10:15:11.115Z,28.80
2018-03-23T10:16:09.284Z,30.80
2018-03-23T10:17:09.484Z,31.50
2018-03-23T10:18:09.654Z,31.10
2018-03-23T10:19:09.837Z,29.30
2018-03-23T10:20:10.116Z,28.60
2018-03-23T10:21:10.226Z,29.20
2018-03-23T10:22:10.356Z,30.80
2018-03-23T10:23:10.527Z,30.30
2018-03-23T10:24:10.806Z,29.40
2018-03-23T10:25:10.907Z,29.10
2018-03-23T10:26:11.093Z,28.60
2018-03-23T10:27:11.285Z,28.60
2018-03-23T10:28:11.756Z,27.20
2018-03-23T10:29:12.266Z,28.00
2018-03-23T10:30:11.740Z,28.50
2018-03-23T10:31:11.915Z,27.80
2018-03-23T10:32:12.091Z,27.70
2018-03-23T10:33:12.276Z,26.60
2018-03-23T10:34:12.452Z,28.30
2018-03-23T10:35:12.627Z,29.30
2018-03-23T10:36:12.804Z,27.50
2018-03-23T10:37:13.020Z,26.40
2018-03-23T10:38:13.295Z,27.00
2018-03-23T10:39:13.402Z,26.40
2018-03-23T10:40:13.665Z,24.90
2018-03-23T10:41:13.787Z,25.80
2018-03-23T10:42:13.965Z,25.50
2018-03-23T10:43:14.146Z,24.40
2018-03-23T10:44:14.324Z,24.30
2018-03-23T10:45:14.516Z,25.30
2018-03-23T10:46:14.708Z,25.10
2018-03-23T10:47:14.894Z,24.30
2018-03-23T10:48:15.071Z,24.90
2018-03-23T10:49:15.250Z,25.10
2018-03-23T10:50:15.512Z,25.10
2018-03-23T10:51:15.570Z,24.50
2018-03-23T10:52:15.776Z,26.20
2018-03-23T10:53:16.395Z,25.20
2018-03-23T10:54:16.090Z,25.40
2018-03-23T10:55:17.287Z,25.20
2018-03-23T10:56:16.726Z,26.20
2018-03-23T10:57:16.974Z,26.00
2018-03-23T10:58:17.244Z,26.00
2018-03-23T10:59:17.491Z,26.00
2018-03-23T11:00:17.873Z,25.30
2018-03-23T11:01:17.679Z,26.40
2018-03-23T11:02:17.974Z,27.20
2018-03-23T11:03:17.955Z,27.30
2018-03-23T11:04:18.221Z,27.00
2018-03-23T11:05:18.602Z,26.80
2018-03-23T11:06:18.642Z,25.70
2018-03-23T11:07:18.609Z,26.40
2018-03-23T11:08:18.655Z,24.70
2018-03-23T11:09:18.952Z,24.60
2018-03-23T11:10:19.166Z,24.30
2018-03-23T11:11:19.037Z,22.60
2018-03-23T11:12:19.309Z,23.40
2018-03-23T11:13:19.440Z,22.90
2018-03-23T11:14:19.253Z,22.30
2018-03-23T11:15:19.702Z,21.70
2018-03-23T11:16:19.575Z,21.40
2018-03-23T11:17:19.773Z,22.20
2018-03-23T11:18:19.970Z,21.90
2018-03-23T11:19:20.150Z,21.10
2018-03-23T11:20:20.340Z,21.00
2018-03-23T11:21:20.855Z,21.30
2018-03-23T11:22:20.954Z,20.70
2018-03-23T11:23:20.784Z,21.70
2018-03-23T11:24:21.058Z,21.90
2018-03-23T11:25:21.523Z,22.20
2018-03-23T11:26:21.589Z,21.60
2018-03-23T11:27:21.936Z,24.00
2018-03-23T11:28:21.681Z,21.20
2018-03-23T11:29:21.701Z,22.70
2018-03-23T11:30:21.848Z,21.50
2018-03-23T11:31:22.027Z,21.30
2018-03-23T11:32:22.203Z,20.30
2018-03-23T11:33:22.381Z,21.50
2018-03-23T11:34:22.563Z,21.00
2018-03-23T11:35:22.740Z,21.60
2018-03-23T11:36:22.922Z,22.30
2018-03-23T11:37:23.150Z,22.70
2018-03-23T11:38:23.284Z,21.80
2018-03-23T11:39:23.463Z,23.90
2018-03-23T11:40:23.683Z,23.50
2018-03-23T11:41:23.861Z,22.20
2018-03-23T11:42:24.036Z,25.10
2018-03-23T11:43:24.241Z,23.80
2018-03-23T11:44:24.425Z,24.30
2018-03-23T11:45:24.599Z,24.20
2018-03-23T11:46:24.778Z,24.20
2018-03-23T11:47:24.957Z,25.00
2018-03-23T11:48:25.140Z,23.70
2018-03-23T11:49:25.326Z,25.30
2018-03-23T11:50:25.509Z,24.20
2018-03-23T11:51:25.690Z,25.00
2018-03-23T11:52:25.867Z,23.50
2018-03-23T11:53:26.052Z,23.60
2018-03-23T11:54:26.223Z,25.80
2018-03-23T11:55:26.404Z,24.80
2018-03-23T11:56:26.593Z,23.70
2018-03-23T11:57:26.768Z,23.60
2018-03-23T11:58:26.946Z,24.40
2018-03-23T11:59:27.124Z,22.70
2018-03-23T12:00:27.314Z,23.20
2018-03-23T12:01:27.476Z,22.80
2018-03-23T12:02:29.276Z,22.40
2018-03-23T12:03:27.875Z,22.50
2018-03-23T12:04:28.047Z,21.30
2018-03-23T12:05:28.241Z,22.40
2018-03-23T12:06:28.423Z,23.00
2018-03-23T12:07:28.667Z,22.30
2018-03-23T12:08:28.790Z,22.00
2018-03-23T12:09:28.964Z,20.00
2018-03-23T12:10:29.155Z,20.00
2018-03-23T12:11:29.336Z,20.00
2018-03-23T12:12:29.521Z,20.90
2018-03-23T12:13:29.950Z,18.20
2018-03-23T12:14:30.406Z,18.60
2018-03-23T12:15:30.402Z,17.20
2018-03-23T12:16:30.160Z,17.30
2018-03-23T12:17:30.371Z,18.10
2018-03-23T12:18:30.704Z,17.10
2018-03-23T12:19:31.171Z,17.60
2018-03-23T12:20:30.931Z,17.30
2018-03-23T12:21:31.117Z,18.00
2018-03-23T12:22:31.366Z,17.10
2018-03-23T12:23:31.419Z,16.90
2018-03-23T12:24:31.623Z,17.60
2018-03-23T12:25:32.115Z,17.30
2018-03-23T12:26:32.259Z,17.00
2018-03-23T12:27:32.578Z,16.20
2018-03-23T12:28:32.798Z,15.80
2018-03-23T12:29:32.893Z,15.70
2018-03-23T12:30:33.253Z,15.00
2018-03-23T12:31:33.176Z,14.70
2018-03-23T12:32:33.453Z,14.60
2018-03-23T12:33:33.527Z,14.20
2018-03-23T12:34:33.865Z,12.80
2018-03-23T12:35:33.866Z,12.90
2018-03-23T12:36:34.174Z,13.00
2018-03-23T12:37:34.331Z,13.60
2018-03-23T12:38:34.417Z,14.10
2018-03-23T12:39:34.967Z,13.30
2018-03-23T12:40:35.464Z,13.10
2018-03-23T12:41:35.089Z,14.60
2018-03-23T12:42:35.010Z,13.70
2018-03-23T12:43:36.161Z,12.80
2018-03-23T12:44:35.557Z,13.20
2018-03-23T12:45:35.841Z,11.20
2018-03-23T12:46:35.744Z,11.40
2018-03-23T12:47:35.965Z,11.40
2018-03-23T12:48:36.235Z,11.50
2018-03-23T12:49:36.363Z,13.20
2018-03-23T12:50:36.375Z,11.30
2018-03-23T12:51:36.487Z,11.70
2018-03-23T12:52:36.598Z,12.60
2018-03-23T12:53:36.978Z,12.00
2018-03-23T12:54:36.878Z,12.50
2018-03-23T12:55:37.071Z,11.90
2018-03-23T12:56:37.344Z,12.40
2018-03-23T12:57:37.606Z,12.30
2018-03-23T12:58:37.905Z,12.70
2018-03-23T12:59:38.076Z,12.20
2018-03-23T13:00:37.887Z,11.60
2018-03-23T13:01:38.333Z,11.70
2018-03-23T13:02:38.967Z,11.00
2018-03-23T13:03:38.463Z,11.40
2018-03-23T13:04:38.748Z,11.80
2018-03-23T13:05:39.225Z,12.30
2018-03-23T13:06:39.178Z,13.70
2018-03-23T13:07:39.213Z,12.20
2018-03-23T13:08:39.441Z,14.50
2018-03-23T13:09:39.752Z,11.90
2018-03-23T13:10:39.985Z,12.30
2018-03-23T13:11:40.092Z,11.80
2018-03-23T13:12:40.259Z,12.00
2018-03-23T13:13:40.065Z,11.10
2018-03-23T13:14:40.466Z,10.40
2018-03-23T13:15:40.661Z,10.60
2018-03-23T13:16:44.121Z,10.30
2018-03-23T13:17:41.061Z,10.40
2018-03-23T13:18:41.126Z,9.50
2018-03-23T13:19:41.419Z,10.50
2018-03-23T13:20:44.702Z,10.10
2018-03-23T13:21:41.715Z,10.00
2018-03-23T13:22:41.913Z,9.90
2018-03-23T13:23:42.006Z,9.90
2018-03-23T13:24:42.272Z,10.50
2018-03-23T13:25:42.215Z,10.10
2018-03-23T13:26:42.662Z,10.40
2018-03-23T13:27:42.639Z,10.30
2018-03-23T13:28:42.825Z,10.30
2018-03-23T13:29:44.807Z,10.40
2018-03-23T13:30:44.976Z,10.30
2018-03-23T13:31:44.837Z,10.70
2018-03-23T13:32:43.211Z,11.50
2018-03-23T13:33:43.680Z,11.20
2018-03-23T13:34:43.602Z,12.10
2018-03-23T13:35:43.778Z,11.80
2018-03-23T13:36:43.918Z,11.10
2018-03-23T13:37:44.072Z,11.50
2018-03-23T13:38:44.257Z,11.30
2018-03-23T13:39:44.526Z,12.10
2018-03-23T13:40:44.629Z,11.80
2018-03-23T13:41:44.820Z,12.00
2018-03-23T13:42:46.056Z,12.20
2018-03-23T13:43:45.117Z,11.40
2018-03-23T13:44:45.363Z,11.70
2018-03-23T13:45:45.371Z,12.20
2018-03-23T13:46:45.750Z,12.60
2018-03-23T13:47:45.362Z,11.90
2018-03-23T13:48:45.668Z,12.00
2018-03-23T13:49:45.681Z,11.90
2018-03-23T13:50:45.868Z,11.40
2018-03-23T13:51:46.073Z,12.20
2018-03-23T13:52:46.264Z,12.10
2018-03-23T13:53:46.451Z,12.20
2018-03-23T13:54:46.616Z,12.40
2018-03-23T13:55:46.791Z,13.10
2018-03-23T13:56:46.978Z,12.60
2018-03-23T13:57:47.147Z,12.70
2018-03-23T13:58:47.331Z,11.70
2018-03-23T13:59:49.683Z,12.90
2018-03-23T14:00:50.133Z,12.80
2018-03-23T14:01:51.549Z,12.20
2018-03-23T14:02:48.156Z,12.30
2018-03-23T14:03:48.403Z,12.70
2018-03-23T14:04:48.547Z,11.90
2018-03-23T14:05:48.750Z,13.00
2018-03-23T14:06:48.915Z,12.90
2018-03-23T14:07:49.099Z,12.30
2018-03-23T14:08:49.289Z,12.80
2018-03-23T14:09:49.466Z,12.30
2018-03-23T14:10:49.652Z,13.10
2018-03-23T14:11:49.856Z,13.40
2018-03-23T14:12:50.037Z,13.50
2018-03-23T14:13:50.223Z,14.30
2018-03-23T14:14:50.492Z,13.60
2018-03-23T14:15:50.585Z,14.30
2018-03-23T14:16:50.719Z,15.40
2018-03-23T14:17:50.890Z,15.30
2018-03-23T14:18:51.071Z,16.00
2018-03-23T14:19:54.251Z,16.70
2018-03-23T14:20:51.374Z,15.90
2018-03-23T14:21:51.546Z,15.80
2018-03-23T14:22:51.739Z,16.40
2018-03-23T14:23:51.897Z,15.20
2018-03-23T14:24:52.110Z,15.10
2018-03-23T14:25:52.291Z,14.60
2018-03-23T14:26:52.461Z,15.20
2018-03-23T14:27:52.639Z,14.80
2018-03-23T14:28:52.829Z,15.30
2018-03-23T14:29:53.311Z,14.00
2018-03-23T14:30:53.516Z,14.50
2018-03-23T14:31:54.373Z,14.50
2018-03-23T14:32:53.760Z,15.20
2018-03-23T14:33:53.858Z,15.70
2018-03-23T14:34:53.868Z,14.70
2018-03-23T14:35:54.413Z,15.00
2018-03-23T14:36:54.312Z,14.80
2018-03-23T14:37:54.276Z,14.90
2018-03-23T14:38:54.458Z,14.80
2018-03-23T14:39:54.807Z,15.30
2018-03-23T14:40:54.747Z,14.40
2018-03-23T14:41:54.958Z,15.10
2018-03-23T14:42:55.131Z,14.50
2018-03-23T14:43:55.316Z,14.90
2018-03-23T14:44:55.489Z,14.60
2018-03-23T14:45:55.669Z,15.10
2018-03-23T14:46:55.887Z,15.30
2018-03-23T14:47:56.043Z,14.20
2018-03-23T14:48:56.228Z,15.60
2018-03-23T14:49:56.430Z,15.50
2018-03-23T14:50:56.607Z,14.70
2018-03-23T14:51:56.787Z,14.70
2018-03-23T14:52:56.972Z,14.40
2018-03-23T14:53:57.159Z,14.90
2018-03-23T14:54:57.459Z,15.20
2018-03-23T14:55:57.515Z,15.70
2018-03-23T14:56:57.759Z,15.30
2018-03-23T14:57:57.901Z,15.70
2018-03-23T14:58:58.080Z,15.20
2018-03-23T14:59:58.262Z,15.50
2018-03-23T15:00:58.443Z,15.60
2018-03-23T15:01:58.623Z,17.10
2018-03-23T15:02:58.817Z,16.20
2018-03-23T15:03:58.981Z,16.60
2018-03-23T15:04:59.153Z,16.60
2018-03-23T15:05:59.339Z,16.70
2018-03-23T15:06:59.514Z,17.20
2018-03-23T15:07:59.925Z,17.20
2018-03-23T15:09:00.109Z,16.90
2018-03-23T15:10:00.344Z,17.50
2018-03-23T15:11:00.204Z,17.80
2018-03-23T15:12:00.388Z,18.30
2018-03-23T15:13:00.578Z,18.00
2018-03-23T15:14:00.758Z,17.40
2018-03-23T15:15:00.981Z,19.10
2018-03-23T15:16:01.174Z,18.30
2018-03-23T15:17:01.368Z,18.40
2018-03-23T15:18:01.546Z,18.30
2018-03-23T15:19:01.759Z,18.80
2018-03-23T15:20:01.942Z,18.60
2018-03-23T15:21:02.132Z,19.60
2018-03-23T15:22:02.310Z,18.70
2018-03-23T15:23:02.504Z,19.20
2018-03-23T15:24:02.714Z,19.10
2018-03-23T15:25:02.882Z,18.70
2018-03-23T15:26:03.060Z,18.60
2018-03-23T15:27:03.239Z,19.60
2018-03-23T15:28:03.432Z,18.50
2018-03-23T15:29:03.611Z,19.20
2018-03-23T15:30:03.800Z,18.40
2018-03-23T15:31:03.983Z,18.90
2018-03-23T15:32:04.173Z,17.70
2018-03-23T15:33:04.352Z,18.20
2018-03-23T15:34:04.543Z,17.70
2018-03-23T15:35:04.886Z,17.90
2018-03-23T15:36:04.974Z,18.20
2018-03-23T15:37:05.162Z,17.60
2018-03-23T15:38:05.336Z,17.60
2018-03-23T15:39:05.791Z,16.90
2018-03-23T15:40:06.075Z,16.90
2018-03-23T15:41:05.918Z,16.90
2018-03-23T15:42:06.159Z,17.80
2018-03-23T15:43:06.204Z,16.40
2018-03-23T15:44:06.419Z,16.70
2018-03-23T15:45:06.626Z,15.30
2018-03-23T15:46:06.881Z,17.30
2018-03-23T15:47:06.964Z,17.10
2018-03-23T15:48:07.135Z,16.20
2018-03-23T15:49:07.497Z,16.60
2018-03-23T15:50:07.446Z,16.60
2018-03-23T15:51:07.700Z,17.40
2018-03-23T15:52:08.036Z,16.80
2018-03-23T15:53:07.976Z,16.70
2018-03-23T15:54:08.716Z,17.50
2018-03-23T15:55:08.330Z,16.40
2018-03-23T15:56:08.563Z,16.70
2018-03-23T15:57:08.630Z,16.60
2018-03-23T15:58:10.356Z,16.30
2018-03-23T15:59:08.945Z,17.20
2018-03-23T16:00:09.141Z,16.60
2018-03-23T16:01:09.324Z,16.40
2018-03-23T16:02:09.590Z,16.60
2018-03-23T16:03:09.762Z,16.40
2018-03-23T16:04:10.351Z,16.40
2018-03-23T16:05:10.200Z,16.10
2018-03-23T16:06:10.211Z,16.10
2018-03-23T16:07:10.414Z,16.40
2018-03-23T16:08:10.592Z,16.00
2018-03-23T16:09:10.769Z,16.80
2018-03-23T16:10:10.972Z,16.60
2018-03-23T16:11:11.152Z,16.00
2018-03-23T16:12:11.322Z,16.10
2018-03-23T16:13:11.510Z,15.80
2018-03-23T16:14:11.691Z,16.10
2018-03-23T16:15:11.875Z,16.30
2018-03-23T16:16:12.366Z,17.00
2018-03-23T16:17:12.300Z,16.10
2018-03-23T16:18:12.348Z,17.20
2018-03-23T16:19:12.523Z,15.80
2018-03-23T16:20:12.763Z,16.50
2018-03-23T16:21:12.839Z,17.00
2018-03-23T16:22:13.194Z,17.50
2018-03-23T16:23:13.125Z,16.80
2018-03-23T16:24:13.333Z,16.90
2018-03-23T16:25:13.500Z,16.70
2018-03-23T16:26:13.677Z,17.20
2018-03-23T16:27:13.959Z,16.10
2018-03-23T16:28:13.990Z,17.50
2018-03-23T16:29:14.180Z,17.30
2018-03-23T16:30:14.357Z,17.80
2018-03-23T16:31:14.544Z,17.00
2018-03-23T16:32:14.721Z,16.40
2018-03-23T16:33:14.903Z,17.10
2018-03-23T16:34:15.592Z,17.10
2018-03-23T16:35:15.467Z,17.70
2018-03-23T16:36:15.393Z,17.30
2018-03-23T16:37:15.572Z,17.20
2018-03-23T16:38:15.749Z,17.60
2018-03-23T16:39:17.517Z,17.80
2018-03-23T16:40:16.042Z,18.10
2018-03-23T16:41:16.220Z,17.40
2018-03-23T16:42:16.406Z,18.10
2018-03-23T16:43:16.582Z,19.50
2018-03-23T16:44:16.762Z,18.30
2018-03-23T16:45:16.938Z,18.50
2018-03-23T16:46:17.126Z,18.70
2018-03-23T16:47:17.301Z,17.80
2018-03-23T16:48:17.492Z,19.20
2018-03-23T16:49:17.686Z,19.80
2018-03-23T16:50:17.882Z,19.20
2018-03-23T16:51:19.801Z,19.20
2018-03-23T16:52:21.246Z,19.90
2018-03-23T16:53:19.741Z,21.40
2018-03-23T16:54:19.017Z,21.40
2018-03-23T16:55:20.277Z,20.60
2018-03-23T16:56:19.698Z,20.10
2018-03-23T16:57:19.424Z,21.10
2018-03-23T16:58:19.508Z,21.10
2018-03-23T16:59:19.710Z,21.10
2018-03-23T17:00:19.876Z,21.90
2018-03-23T17:01:20.057Z,20.50
2018-03-23T17:02:20.311Z,21.90
2018-03-23T17:03:20.347Z,22.40
2018-03-23T17:04:20.650Z,21.80
2018-03-23T17:05:20.682Z,24.90
2018-03-23T17:06:20.916Z,22.40
2018-03-23T17:07:21.097Z,21.20
2018-03-23T17:08:21.336Z,21.30
2018-03-23T17:09:21.535Z,22.50
2018-03-23T17:10:21.588Z,21.70
2018-03-23T17:11:21.712Z,22.10
2018-03-23T17:12:21.940Z,22.60
2018-03-23T17:13:22.001Z,21.10
2018-03-23T17:14:22.316Z,21.50
2018-03-23T17:15:23.696Z,21.00
2018-03-23T17:16:23.335Z,21.00
2018-03-23T17:17:22.722Z,21.40
2018-03-23T17:18:22.855Z,22.30
2018-03-23T17:19:23.026Z,19.80
2018-03-23T17:20:23.099Z,22.60
2018-03-23T17:21:23.363Z,21.40
2018-03-23T17:22:23.481Z,21.20
2018-03-23T17:23:23.576Z,21.90
2018-03-23T17:24:23.812Z,23.30
2018-03-23T17:25:23.936Z,21.80
2018-03-23T17:26:24.199Z,21.80
2018-03-23T17:27:24.040Z,22.60
2018-03-23T17:28:24.407Z,24.10
2018-03-23T17:29:24.677Z,24.20
2018-03-23T17:30:24.757Z,21.80
2018-03-23T17:31:24.939Z,22.70
2018-03-23T17:32:25.282Z,23.30
2018-03-23T17:33:25.445Z,22.50
2018-03-23T17:34:25.345Z,22.50
2018-03-23T17:35:25.616Z,24.10
2018-03-23T17:36:25.931Z,23.20
2018-03-23T17:37:25.855Z,23.20
2018-03-23T17:38:26.213Z,23.90
2018-03-23T17:39:26.027Z,22.90
2018-03-23T17:40:26.385Z,22.80
2018-03-23T17:41:27.098Z,22.40
2018-03-23T17:42:26.650Z,22.10
2018-03-23T17:43:26.967Z,22.40
2018-03-23T17:44:27.149Z,21.50
2018-03-23T17:45:27.297Z,22.80
2018-03-23T17:46:27.569Z,22.00
2018-03-23T17:47:27.600Z,22.60
2018-03-23T17:48:27.822Z,22.50
2018-03-23T17:49:27.980Z,23.00
2018-03-23T17:50:29.730Z,22.80
2018-03-23T17:51:28.650Z,23.20
2018-03-23T17:52:28.582Z,22.30
2018-03-23T17:53:28.609Z,21.40
2018-03-23T17:54:32.225Z,21.60
2018-03-23T17:55:31.108Z,24.00
2018-03-23T17:56:31.344Z,23.80
2018-03-23T17:57:30.663Z,23.70
2018-03-23T17:58:30.544Z,23.20
2018-03-23T17:59:30.646Z,22.50
2018-03-23T18:00:30.496Z,22.90
2018-03-23T18:01:29.617Z,23.60
2018-03-23T18:02:30.448Z,22.60
2018-03-23T18:03:32.378Z,23.20
2018-03-23T18:04:33.285Z,23.40
2018-03-23T18:05:32.606Z,22.10
2018-03-23T18:06:32.782Z,23.10
2018-03-23T18:07:31.362Z,23.40
2018-03-23T18:08:31.114Z,22.90
2018-03-23T18:09:31.744Z,26.30
2018-03-23T18:10:32.104Z,27.40
2018-03-23T18:11:32.659Z,25.60
2018-03-23T18:12:31.932Z,30.80
2018-03-23T18:13:32.871Z,35.30
2018-03-23T18:14:34.101Z,26.80
2018-03-23T18:15:32.771Z,24.40
2018-03-23T18:16:33.336Z,23.00
2018-03-23T18:17:33.299Z,23.20
2018-03-23T18:18:34.227Z,23.20
2018-03-23T18:19:34.165Z,22.40
2018-03-23T18:20:35.563Z,23.40
2018-03-23T18:21:32.711Z,21.70
2018-03-23T18:22:34.126Z,22.00
2018-03-23T18:23:33.014Z,23.80
2018-03-23T18:24:34.012Z,22.10
2018-03-23T18:25:34.890Z,23.20
2018-03-23T18:26:33.947Z,21.60
2018-03-23T18:27:34.350Z,20.90
2018-03-23T18:28:34.692Z,23.00
2018-03-23T18:29:34.994Z,22.80
2018-03-23T18:30:35.754Z,23.40
2018-03-23T18:31:35.831Z,21.80
2018-03-23T18:32:36.318Z,21.30
2018-03-23T18:33:35.998Z,20.90
2018-03-23T18:34:37.518Z,20.90
2018-03-23T18:37:08.915Z,22.00
2018-03-23T18:38:08.582Z,23.30
2018-03-23T18:39:08.898Z,22.30
2018-03-23T18:40:10.001Z,23.20
2018-03-23T18:41:08.837Z,22.60
2018-03-23T18:42:09.262Z,24.70
2018-03-23T18:43:08.967Z,25.10
2018-03-23T18:44:09.185Z,25.00
2018-03-23T18:45:10.801Z,24.90
2018-03-23T18:46:09.504Z,24.50
2018-03-23T18:47:09.944Z,24.80
2018-03-23T18:48:09.878Z,25.40
2018-03-23T18:49:10.008Z,23.80
2018-03-23T18:50:10.097Z,24.50
2018-03-23T18:51:09.825Z,26.40
2018-03-23T18:52:09.640Z,27.20
2018-03-23T18:53:11.256Z,26.40
2018-03-23T18:54:11.624Z,26.50
2018-03-23T18:55:10.329Z,26.20
2018-03-23T18:56:11.005Z,25.10
2018-03-23T18:57:11.876Z,25.20
2018-03-23T18:58:11.737Z,26.40
2018-03-23T18:59:11.829Z,25.50
2018-03-23T19:00:12.358Z,24.60
2018-03-23T19:01:11.052Z,25.60
2018-03-23T19:02:11.597Z,25.40
2018-03-23T19:03:11.365Z,25.50
2018-03-23T19:04:11.865Z,24.30
2018-03-23T19:05:15.104Z,24.80
2018-03-23T19:06:12.188Z,24.20
2018-03-23T19:07:12.095Z,25.60
2018-03-23T19:08:12.148Z,26.60
2018-03-23T19:09:12.340Z,26.80
2018-03-23T19:10:12.824Z,25.40
2018-03-23T19:11:13.500Z,26.80
2018-03-23T19:12:12.905Z,25.70
2018-03-23T19:13:13.097Z,26.20
2018-03-23T19:14:13.617Z,25.60
2018-03-23T19:15:13.842Z,26.20
2018-03-23T19:16:14.526Z,26.30
2018-03-23T19:17:13.920Z,25.80
2018-03-23T19:18:14.177Z,27.40
2018-03-23T19:19:14.386Z,28.20
2018-03-23T19:20:14.639Z,27.10
2018-03-23T19:21:14.805Z,26.00
2018-03-23T19:22:15.061Z,27.90
2018-03-23T19:23:15.126Z,26.70
2018-03-23T19:24:15.172Z,28.30
2018-03-23T19:25:15.482Z,25.80
2018-03-23T19:26:15.760Z,27.30
2018-03-23T19:27:16.228Z,26.90
2018-03-23T19:28:16.200Z,26.30
2018-03-23T19:29:17.219Z,28.60
2018-03-23T19:30:16.496Z,28.40
2018-03-23T19:31:16.718Z,28.00
2018-03-23T19:32:16.892Z,27.80
2018-03-23T19:33:17.284Z,26.70
2018-03-23T19:34:17.163Z,28.20
2018-03-23T19:35:18.444Z,27.50
2018-03-23T19:36:17.614Z,26.70
2018-03-23T19:37:17.371Z,28.90
2018-03-23T19:38:18.150Z,27.40
2018-03-23T19:39:17.995Z,26.70
2018-03-23T19:40:18.260Z,28.00
2018-03-23T19:41:18.826Z,28.70
2018-03-23T19:42:18.448Z,29.10
2018-03-23T19:43:18.429Z,30.00
2018-03-23T19:44:18.611Z,28.00
2018-03-23T19:45:18.763Z,27.70
2018-03-23T19:46:19.593Z,27.40
2018-03-23T19:47:18.938Z,27.70
2018-03-23T19:48:19.334Z,29.00
2018-03-23T19:49:19.483Z,27.00
2018-03-23T19:50:19.829Z,27.80
2018-03-23T19:51:20.161Z,26.40
2018-03-23T19:52:21.210Z,27.10
2018-03-23T19:53:20.524Z,26.70
2018-03-23T19:54:20.658Z,28.20
2018-03-23T19:55:21.687Z,27.60
2018-03-23T19:56:22.209Z,28.10
2018-03-23T19:57:21.274Z,26.90
2018-03-23T19:58:21.376Z,26.90
2018-03-23T19:59:21.642Z,26.10
2018-03-23T20:00:21.537Z,28.40
2018-03-23T20:01:21.327Z,28.80
2018-03-23T20:02:21.762Z,27.90
2018-03-23T20:03:24.338Z,28.10
2018-03-23T20:04:21.894Z,28.70
2018-03-23T20:05:22.725Z,28.40
2018-03-23T20:06:22.747Z,26.40
2018-03-23T20:07:23.694Z,27.30
2018-03-23T20:08:22.870Z,26.70
2018-03-23T20:09:23.453Z,28.30
2018-03-23T20:10:23.553Z,27.70
2018-03-23T20:11:23.120Z,26.70
2018-03-23T20:12:23.220Z,25.80
2018-03-23T20:13:23.390Z,27.30
2018-03-23T20:14:23.563Z,26.60
2018-03-23T20:15:23.797Z,27.30
2018-03-23T20:16:24.381Z,26.70
2018-03-23T20:17:24.428Z,27.50
2018-03-23T20:18:24.814Z,27.10
2018-03-23T20:19:25.334Z,28.00
2018-03-23T20:20:25.543Z,27.10
2018-03-23T20:21:24.951Z,27.30
2018-03-23T20:22:25.141Z,28.30
2018-03-23T20:23:25.473Z,27.90
2018-03-23T20:24:26.551Z,27.80
2018-03-23T20:25:26.777Z,27.30
2018-03-23T20:26:25.895Z,25.90
2018-03-23T20:27:27.764Z,26.00
2018-03-23T20:28:27.547Z,25.20
2018-03-23T20:29:27.264Z,27.60
2018-03-23T20:30:27.044Z,27.50
2018-03-23T20:31:26.664Z,27.30
2018-03-23T20:32:26.890Z,25.70
2018-03-23T20:33:27.165Z,25.50
2018-03-23T20:34:27.180Z,27.30
2018-03-23T20:35:27.361Z,25.90
2018-03-23T20:36:27.534Z,26.20
2018-03-23T20:37:27.782Z,26.90
2018-03-23T20:38:27.883Z,26.30
2018-03-23T20:39:28.076Z,28.00
2018-03-23T20:40:28.259Z,26.10
2018-03-23T20:41:28.452Z,26.10
2018-03-23T20:42:31.912Z,27.20
2018-03-23T20:43:29.396Z,26.70
2018-03-23T20:44:28.985Z,28.00
2018-03-23T20:45:29.208Z,30.00
2018-03-23T20:46:29.777Z,28.20
2018-03-23T20:47:29.966Z,26.90
2018-03-23T20:48:29.820Z,28.10
2018-03-23T20:49:29.888Z,28.40
2018-03-23T20:50:30.071Z,26.90
2018-03-23T20:51:30.256Z,28.80
2018-03-23T20:52:30.436Z,27.10
2018-03-23T20:53:30.676Z,30.10
2018-03-23T20:54:31.324Z,30.20
2018-03-23T20:55:30.931Z,30.10
2018-03-23T20:56:31.110Z,29.60
2018-03-23T20:57:31.306Z,28.80
2018-03-23T20:58:31.486Z,29.50
2018-03-23T20:59:31.669Z,29.10
2018-03-23T21:00:31.846Z,28.40
2018-03-23T21:01:33.436Z,26.50
2018-03-23T21:02:33.970Z,27.80
2018-03-23T21:03:33.721Z,26.60
2018-03-23T21:04:34.712Z,27.80
2018-03-23T21:05:34.505Z,29.30
2018-03-23T21:06:34.029Z,26.20
2018-03-23T21:07:34.158Z,29.30
2018-03-23T21:08:34.593Z,28.10
2018-03-23T21:09:34.034Z,28.30
2018-03-23T21:10:34.529Z,28.90
2018-03-23T21:11:35.500Z,27.30
2018-03-23T21:12:34.846Z,26.30
2018-03-23T21:13:35.256Z,28.20
2018-03-23T21:14:35.835Z,27.10
2018-03-23T21:15:36.436Z,28.90
2018-03-23T21:16:35.045Z,32.00
2018-03-23T21:17:35.853Z,30.10
2018-03-23T21:18:35.860Z,30.60
2018-03-23T21:19:36.078Z,28.10
2018-03-23T21:20:36.673Z,28.10
2018-03-23T21:21:36.670Z,27.90
2018-03-23T21:22:36.835Z,29.10
2018-03-23T21:23:36.127Z,28.80
2018-03-23T21:24:36.763Z,28.20
2018-03-23T21:25:38.016Z,28.30
2018-03-23T21:26:39.028Z,29.80
2018-03-23T21:27:36.912Z,28.80
2018-03-23T21:28:38.038Z,27.20
2018-03-23T21:29:38.462Z,28.20
2018-03-23T21:30:38.036Z,29.90
2018-03-23T21:31:37.936Z,29.70
2018-03-23T21:32:38.390Z,28.70
2018-03-23T21:33:38.585Z,29.80
2018-03-23T21:34:38.439Z,31.20
2018-03-23T21:35:37.859Z,28.70
2018-03-23T21:36:38.917Z,30.60
2018-03-23T21:37:39.359Z,28.20
2018-03-23T21:38:39.985Z,28.40
2018-03-23T21:39:40.127Z,29.40
2018-03-23T21:40:39.478Z,27.60
2018-03-23T21:41:40.611Z,28.70
2018-03-23T21:42:40.436Z,26.60
2018-03-23T21:43:40.248Z,29.80
2018-03-23T21:44:40.811Z,28.70
2018-03-23T21:45:41.196Z,28.50
2018-03-23T21:46:40.855Z,28.60
2018-03-23T21:47:40.849Z,28.80
2018-03-23T21:48:41.288Z,28.20
2018-03-23T21:49:41.477Z,27.40
2018-03-23T21:50:40.376Z,26.10
2018-03-23T21:51:41.271Z,26.80
2018-03-23T21:52:42.080Z,26.80
2018-03-23T21:53:40.501Z,28.10
2018-03-23T21:54:40.673Z,28.60
2018-03-23T21:55:40.853Z,27.70
2018-03-23T21:56:41.758Z,27.90
2018-03-23T21:57:41.180Z,29.40
2018-03-23T21:58:41.595Z,29.80
2018-03-23T21:59:41.483Z,28.40
2018-03-23T22:00:41.812Z,29.70
2018-03-23T22:01:41.867Z,32.70
2018-03-23T22:02:42.084Z,28.80
2018-03-23T22:03:42.284Z,29.20
2018-03-23T22:04:43.899Z,26.70
2018-03-23T22:05:43.211Z,29.60
2018-03-23T22:06:43.550Z,28.20
2018-03-23T22:07:44.568Z,27.20
2018-03-23T22:08:43.747Z,29.60
2018-03-23T22:09:44.575Z,27.70
2018-03-23T22:10:44.979Z,29.60
2018-03-23T22:11:44.332Z,28.20
2018-03-23T22:12:44.334Z,28.20
2018-03-23T22:13:46.047Z,27.80
2018-03-23T22:14:44.173Z,29.10
2018-03-23T22:15:44.444Z,29.10
2018-03-23T22:16:44.512Z,28.20
2018-03-23T22:17:44.697Z,29.10
2018-03-23T22:18:44.916Z,30.50
2018-03-23T22:19:45.013Z,29.90
2018-03-23T22:20:45.230Z,31.10
2018-03-23T22:21:45.294Z,31.60
2018-03-23T22:22:45.468Z,32.40
2018-03-23T22:23:45.646Z,33.70
2018-03-23T22:24:45.831Z,35.10
2018-03-23T22:25:46.007Z,34.50
2018-03-23T22:26:46.179Z,34.60
2018-03-23T22:27:46.357Z,34.60
2018-03-23T22:28:46.550Z,34.40
2018-03-23T22:29:49.340Z,34.40
2018-03-23T22:30:51.164Z,34.60
2018-03-23T22:31:46.984Z,32.10
2018-03-23T22:32:47.166Z,35.50
2018-03-23T22:33:47.332Z,31.80
2018-03-23T22:34:47.516Z,31.70
2018-03-23T22:35:47.696Z,32.20
2018-03-23T22:36:47.902Z,30.90
2018-03-23T22:37:48.083Z,33.50
2018-03-23T22:38:48.229Z,33.10
2018-03-23T22:39:48.408Z,33.30
2018-03-23T22:40:48.591Z,30.70
2018-03-23T22:41:48.770Z,31.30
2018-03-23T22:42:48.950Z,33.00
2018-03-23T22:43:49.134Z,35.40
2018-03-23T22:44:49.308Z,34.50
2018-03-23T22:45:49.483Z,34.70
2018-03-23T22:46:49.652Z,34.10
2018-03-23T22:47:49.833Z,31.50
2018-03-23T22:48:50.013Z,31.80
2018-03-23T22:49:50.184Z,31.20
2018-03-23T22:50:50.358Z,31.40
2018-03-23T22:51:50.538Z,31.90
2018-03-23T22:52:50.715Z,27.80
2018-03-23T22:53:50.891Z,28.80
2018-03-23T22:54:51.066Z,29.20
2018-03-23T22:55:51.244Z,32.10
2018-03-23T22:56:56.836Z,29.70
2018-03-23T22:57:52.951Z,32.10
2018-03-23T22:58:53.624Z,30.30
2018-03-23T22:59:53.250Z,29.30
2018-03-23T23:00:52.086Z,31.20
2018-03-23T23:01:52.260Z,32.10